createdAt,value
2023-04-27T00:04:58.365Z,99.90
2023-04-27T00:10:00.460Z,99.90
2023-04-27T00:15:02.211Z,99.90
2023-04-27T00:20:05.546Z,99.90
2023-04-27T00:25:07.729Z,99.90
2023-04-27T00:30:09.898Z,99.90
2023-04-27T00:35:11.838Z,99.90
2023-04-27T00:40:13.790Z,99.90
2023-04-27T00:45:15.543Z,99.90
2023-04-27T00:50:23.194Z,99.90
2023-04-27T00:55:26.104Z,99.90
2023-04-27T01:00:28.027Z,99.90
2023-04-27T01:05:32.000Z,99.90
2023-04-27T01:10:34.364Z,99.90
2023-04-27T01:15:36.192Z,99.90
2023-04-27T01:20:38.655Z,99.90
2023-04-27T01:25:40.740Z,99.90
2023-04-27T01:30:42.586Z,99.90
2023-04-27T01:35:44.291Z,99.90
2023-04-27T01:40:45.999Z,99.90
2023-04-27T01:45:48.498Z,99.90
2023-04-27T01:50:50.341Z,99.90
2023-04-27T01:55:52.188Z,99.90
2023-04-27T02:00:53.937Z,99.90
2023-04-27T02:05:55.677Z,99.90
2023-04-27T02:10:57.415Z,99.90
2023-04-27T02:16:02.001Z,99.90
2023-04-27T02:21:09.820Z,99.90
2023-04-27T02:26:22.245Z,99.90
2023-04-27T02:31:24.375Z,99.90
2023-04-27T02:36:26.177Z,99.90
2023-04-27T02:41:33.054Z,99.90
2023-04-27T02:46:34.812Z,99.90
2023-04-27T02:51:36.547Z,99.90
2023-04-27T02:56:38.343Z,99.90
2023-04-27T03:01:40.221Z,99.90
2023-04-27T03:06:42.165Z,99.90
2023-04-27T03:11:44.151Z,99.90
2023-04-27T03:16:45.923Z,99.90
2023-04-27T03:21:48.500Z,99.90
2023-04-27T03:26:51.144Z,99.90
2023-04-27T03:31:52.939Z,99.90
2023-04-27T03:36:54.810Z,99.90
2023-04-27T03:41:57.514Z,99.90
2023-04-27T03:46:59.593Z,99.90
2023-04-27T03:52:01.478Z,99.90
2023-04-27T03:57:04.398Z,99.90
2023-04-27T04:02:06.747Z,99.90
2023-04-27T04:07:08.666Z,99.90
2023-04-27T04:12:10.651Z,99.90
2023-04-27T04:17:12.447Z,99.90
2023-04-27T04:22:15.856Z,99.90
2023-04-27T04:27:17.862Z,99.90
2023-04-27T04:32:20.197Z,99.90
2023-04-27T04:37:22.880Z,99.90
2023-04-27T04:42:25.514Z,99.90
2023-04-27T04:47:27.264Z,99.90
2023-04-27T04:52:29.090Z,99.90
2023-04-27T04:57:31.380Z,99.90
2023-04-27T05:02:33.499Z,99.90
2023-04-27T05:07:35.500Z,99.90
2023-04-27T05:12:37.203Z,99.90
2023-04-27T05:17:38.991Z,99.90
2023-04-27T05:22:41.031Z,99.90
2023-04-27T05:27:42.754Z,99.90
2023-04-27T05:32:44.460Z,99.90
2023-04-27T05:37:46.219Z,99.90
2023-04-27T05:42:48.296Z,99.90
2023-04-27T05:47:50.056Z,99.90
2023-04-27T05:52:51.774Z,99.90
2023-04-27T05:58:04.606Z,99.90
2023-04-27T06:03:09.981Z,99.90
2023-04-27T06:08:12.469Z,99.90
2023-04-27T06:13:14.145Z,99.90
2023-04-27T06:18:16.228Z,99.90
2023-04-27T06:23:17.926Z,99.90
2023-04-27T06:28:19.647Z,99.90
2023-04-27T06:33:21.874Z,99.90
2023-04-27T06:38:23.727Z,99.90
2023-04-27T06:43:25.886Z,99.90
2023-04-27T06:48:27.680Z,99.90
2023-04-27T06:53:31.436Z,99.90
2023-04-27T06:58:33.202Z,99.90
2023-04-27T07:03:36.586Z,99.90
2023-04-27T07:08:38.671Z,99.90
2023-04-27T07:13:40.445Z,99.90
2023-04-27T07:18:43.421Z,99.90
2023-04-27T07:23:46.474Z,99.90
2023-04-27T07:28:48.201Z,99.90
2023-04-27T07:33:49.920Z,99.90
2023-04-27T07:38:51.656Z,99.90
2023-04-27T07:43:53.454Z,99.90
2023-04-27T07:48:55.183Z,99.90
2023-04-27T07:53:56.937Z,99.90
2023-04-27T07:58:59.070Z,99.90
2023-04-27T08:04:01.198Z,99.90
2023-04-27T08:09:04.297Z,99.90
2023-04-27T08:14:08.943Z,99.90
2023-04-27T08:19:11.755Z,99.90
2023-04-27T08:24:13.711Z,99.90
2023-04-27T08:29:26.865Z,99.90
2023-04-27T08:34:29.604Z,99.90
2023-04-27T08:39:31.345Z,99.90
2023-04-27T08:44:33.438Z,99.90
2023-04-27T08:49:36.020Z,99.90
2023-04-27T08:54:37.731Z,99.90
2023-04-27T08:59:40.518Z,99.90
2023-04-27T09:04:42.546Z,99.90
2023-04-27T09:09:45.320Z,99.90
2023-04-27T09:15:06.512Z,99.90
2023-04-27T09:20:10.743Z,99.90
2023-04-27T09:25:31.288Z,99.90
2023-04-27T09:30:33.085Z,99.90
2023-04-27T09:35:34.856Z,99.90
2023-04-27T09:40:36.909Z,99.90
2023-04-27T09:45:39.281Z,99.90
2023-04-27T09:50:42.457Z,99.90
2023-04-27T09:55:59.132Z,99.90
2023-04-27T10:01:17.115Z,99.90
2023-04-27T10:06:29.575Z,99.90
2023-04-27T10:11:42.215Z,99.90
2023-04-27T10:16:51.932Z,99.90
2023-04-27T10:22:02.127Z,99.90
2023-04-27T10:27:09.032Z,99.90
2023-04-27T10:32:13.495Z,99.90
2023-04-27T10:37:16.570Z,99.90
2023-04-27T10:42:28.781Z,98.90
2023-04-27T10:47:39.211Z,97.70
2023-04-27T10:52:44.600Z,97.80
2023-04-27T10:57:51.811Z,97.50
2023-04-27T11:02:55.317Z,96.90
2023-04-27T11:08:08.241Z,96.40
2023-04-27T11:13:12.334Z,91.90
2023-04-27T11:18:15.476Z,92.00
2023-04-27T11:23:28.902Z,90.80
2023-04-27T11:28:31.533Z,93.80
2023-04-27T11:33:34.162Z,95.70
2023-04-27T11:38:37.542Z,96.20
2023-04-27T11:43:48.597Z,94.70
2023-04-27T11:48:50.663Z,93.60
2023-04-27T11:53:52.715Z,91.90
2023-04-27T11:58:56.385Z,93.00
2023-04-27T12:04:00.734Z,92.80
2023-04-27T12:09:05.193Z,94.90
2023-04-27T12:14:08.045Z,94.20
2023-04-27T12:19:09.792Z,93.60
2023-04-27T12:24:11.767Z,93.00
2023-04-27T12:29:14.244Z,94.10
2023-04-27T12:34:16.813Z,95.00
2023-04-27T12:39:20.419Z,94.40
2023-04-27T12:44:22.606Z,94.30
2023-04-27T12:49:24.325Z,94.70
2023-04-27T12:54:26.167Z,93.60
2023-04-27T12:59:28.009Z,94.40
2023-04-27T13:04:31.328Z,91.40
2023-04-27T13:09:33.550Z,91.50
2023-04-27T13:14:35.410Z,91.80
2023-04-27T13:19:37.129Z,89.60
2023-04-27T13:24:38.993Z,88.20
2023-04-27T13:29:40.895Z,86.80
2023-04-27T13:34:42.609Z,79.40
2023-04-27T13:39:44.450Z,78.60
2023-04-27T13:44:46.193Z,81.40
2023-04-27T13:49:47.930Z,84.30
2023-04-27T13:54:49.754Z,76.30
2023-04-27T13:59:51.507Z,67.60
2023-04-27T14:04:53.415Z,60.10
2023-04-27T14:09:55.328Z,59.30
2023-04-27T14:14:58.435Z,62.70
2023-04-27T14:20:00.467Z,69.70
2023-04-27T14:25:02.490Z,72.40
2023-04-27T14:30:05.248Z,74.00
2023-04-27T14:35:07.618Z,79.90
2023-04-27T14:40:10.215Z,79.20
2023-04-27T14:45:12.405Z,76.00
2023-04-27T14:50:14.246Z,72.80
2023-04-27T14:55:17.962Z,75.50
2023-04-27T15:00:19.910Z,78.30
2023-04-27T15:05:21.689Z,71.60
2023-04-27T15:10:23.426Z,71.50
2023-04-27T15:15:25.204Z,70.20
2023-04-27T15:20:27.284Z,68.10
2023-04-27T15:25:29.037Z,69.70
2023-04-27T15:30:31.069Z,74.60
2023-04-27T15:35:32.895Z,74.80
2023-04-27T15:40:35.073Z,76.80
2023-04-27T15:45:37.152Z,75.40
2023-04-27T15:50:38.930Z,77.30
2023-04-27T15:55:40.736Z,77.00
2023-04-27T16:00:42.653Z,77.90
2023-04-27T16:05:44.487Z,80.20
2023-04-27T16:10:46.306Z,81.20
2023-04-27T16:15:48.014Z,81.50
2023-04-27T16:20:49.708Z,82.40
2023-04-27T16:25:51.482Z,81.50
2023-04-27T16:30:53.311Z,81.70
2023-04-27T16:35:57.042Z,80.00
2023-04-27T16:40:58.883Z,80.30
2023-04-27T16:46:00.885Z,73.50
2023-04-27T16:51:02.687Z,76.10
2023-04-27T16:56:04.704Z,76.80
2023-04-27T17:01:06.650Z,77.10
2023-04-27T17:06:08.872Z,74.00
2023-04-27T17:11:11.333Z,74.60
2023-04-27T17:16:13.603Z,74.50
2023-04-27T17:21:16.652Z,75.60
2023-04-27T17:26:21.300Z,76.60
2023-04-27T17:31:23.075Z,75.80
2023-04-27T17:36:24.835Z,76.90
2023-04-27T17:41:26.895Z,76.30
2023-04-27T17:46:28.695Z,78.60
2023-04-27T17:51:32.772Z,76.30
2023-04-27T17:56:34.603Z,78.20
2023-04-27T18:01:36.530Z,76.40
2023-04-27T18:06:38.269Z,78.00
2023-04-27T18:11:40.424Z,78.10
2023-04-27T18:16:42.807Z,78.90
2023-04-27T18:21:44.696Z,79.90
2023-04-27T18:26:46.439Z,80.70
2023-04-27T18:31:49.230Z,82.30
2023-04-27T18:36:52.058Z,82.70
2023-04-27T18:41:54.071Z,84.70
2023-04-27T18:46:55.813Z,87.50
2023-04-27T18:51:57.491Z,90.10
2023-04-27T18:57:00.023Z,90.90
2023-04-27T19:02:01.859Z,92.10
2023-04-27T19:07:03.653Z,91.70
2023-04-27T19:12:05.430Z,93.00
2023-04-27T19:17:07.917Z,93.20
2023-04-27T19:22:09.997Z,94.50
2023-04-27T19:27:11.804Z,95.40
2023-04-27T19:32:13.576Z,95.30
2023-04-27T19:37:15.907Z,94.70
2023-04-27T19:42:17.848Z,94.90
2023-04-27T19:47:19.679Z,95.10
2023-04-27T19:52:21.416Z,95.20
2023-04-27T19:57:23.213Z,97.00
2023-04-27T20:02:25.158Z,97.40
2023-04-27T20:07:26.968Z,98.40
2023-04-27T20:12:43.640Z,98.40
2023-04-27T20:17:49.650Z,99.90
2023-04-27T20:22:51.424Z,99.90
2023-04-27T20:27:53.128Z,99.90
2023-04-27T20:32:56.394Z,99.90
2023-04-27T20:37:58.155Z,99.90
2023-04-27T20:43:01.290Z,99.90
2023-04-27T20:48:03.177Z,99.90
2023-04-27T20:53:05.230Z,99.90
2023-04-27T20:58:06.958Z,99.90
2023-04-27T21:03:08.875Z,99.90
2023-04-27T21:08:10.781Z,99.90
2023-04-27T21:13:12.929Z,99.90
2023-04-27T21:18:29.083Z,99.90
2023-04-27T21:23:35.361Z,99.90
2023-04-27T21:28:37.452Z,99.90
2023-04-27T21:33:39.321Z,99.90
2023-04-27T21:38:41.033Z,99.90
2023-04-27T21:43:43.368Z,99.90
2023-04-27T21:48:45.158Z,99.90
2023-04-27T21:53:46.925Z,99.90
2023-04-27T21:58:48.672Z,99.90
2023-04-27T22:03:50.758Z,99.90
2023-04-27T22:08:52.742Z,99.90
2023-04-27T22:13:54.599Z,99.90
2023-04-27T22:18:57.306Z,99.90
2023-04-27T22:23:59.071Z,99.90
2023-04-27T22:29:00.835Z,99.90
2023-04-27T22:34:03.575Z,99.90
2023-04-27T22:39:07.032Z,99.90
2023-04-27T22:44:08.989Z,99.90
2023-04-27T22:49:10.747Z,99.90
2023-04-27T22:54:12.766Z,99.90
2023-04-27T22:59:14.646Z,99.90
2023-04-27T23:04:17.152Z,99.90
2023-04-27T23:09:20.376Z,99.90
2023-04-27T23:14:22.549Z,99.90
2023-04-27T23:19:24.332Z,99.90
2023-04-27T23:24:26.093Z,99.90
2023-04-27T23:29:27.877Z,99.90
2023-04-27T23:34:31.794Z,99.90
2023-04-27T23:39:33.526Z,99.90
2023-04-27T23:44:35.252Z,99.90
2023-04-27T23:49:36.970Z,99.90
2023-04-27T23:54:38.832Z,99.90
2023-04-27T23:59:40.581Z,99.90
